sensor_id;sensor_type;location;lat;lon;timestamp;temperature;humidity
74901;DHT22;63461;51.416;6.758;2023-05-10T00:01:24;14.90;99.90
74901;DHT22;63461;51.416;6.758;2023-05-10T00:03:50;14.80;99.90
74901;DHT22;63461;51.416;6.758;2023-05-10T00:06:16;14.80;99.90
74901;DHT22;63461;51.416;6.758;2023-05-10T00:08:42;14.70;99.90
74901;DHT22;63461;51.416;6.758;2023-05-10T00:11:07;14.70;99.90
74901;DHT22;63461;51.416;6.758;2023-05-10T00:13:33;14.80;99.90
74901;DHT22;63461;51.416;6.758;2023-05-10T00:15:59;14.90;99.90
74901;DHT22;63461;51.416;6.758;2023-05-10T00:18:26;14.80;99.90
74901;DHT22;63461;51.416;6.758;2023-05-10T00:20:52;14.80;99.90
74901;DHT22;63461;51.416;6.758;2023-05-10T00:23:17;14.70;99.90
74901;DHT22;63461;51.416;6.758;2023-05-10T00:25:43;14.70;99.90
74901;DHT22;63461;51.416;6.758;2023-05-10T00:28:09;14.70;99.90
74901;DHT22;63461;51.416;6.758;2023-05-10T00:30:36;14.70;99.90
74901;DHT22;63461;51.416;6.758;2023-05-10T00:33:02;14.70;99.90
74901;DHT22;63461;51.416;6.758;2023-05-10T00:35:28;14.60;99.90
74901;DHT22;63461;51.416;6.758;2023-05-10T00:37:54;14.70;99.90
74901;DHT22;63461;51.416;6.758;2023-05-10T00:40:20;14.60;99.90
74901;DHT22;63461;51.416;6.758;2023-05-10T00:42:50;14.60;99.90
74901;DHT22;63461;51.416;6.758;2023-05-10T00:45:16;14.50;99.90
74901;DHT22;63461;51.416;6.758;2023-05-10T00:47:41;14.60;99.90
74901;DHT22;63461;51.416;6.758;2023-05-10T00:50:08;14.70;99.90
74901;DHT22;63461;51.416;6.758;2023-05-10T00:52:34;14.50;99.90
74901;DHT22;63461;51.416;6.758;2023-05-10T00:55:00;14.60;99.90
74901;DHT22;63461;51.416;6.758;2023-05-10T00:57:26;14.70;99.90
74901;DHT22;63461;51.416;6.758;2023-05-10T00:59:52;14.70;99.90
74901;DHT22;63461;51.416;6.758;2023-05-10T01:02:19;14.70;99.90
74901;DHT22;63461;51.416;6.758;2023-05-10T01:04:44;14.70;99.90
74901;DHT22;63461;51.416;6.758;2023-05-10T01:07:10;14.70;99.90
74901;DHT22;63461;51.416;6.758;2023-05-10T01:09:36;14.60;99.90
74901;DHT22;63461;51.416;6.758;2023-05-10T01:12:02;14.70;99.90
74901;DHT22;63461;51.416;6.758;2023-05-10T01:14:29;14.70;99.90
74901;DHT22;63461;51.416;6.758;2023-05-10T01:16:55;14.70;99.90
74901;DHT22;63461;51.416;6.758;2023-05-10T01:19:29;14.50;99.90
74901;DHT22;63461;51.416;6.758;2023-05-10T01:22:22;14.60;99.90
74901;DHT22;63461;51.416;6.758;2023-05-10T01:38:38;14.60;99.90
74901;DHT22;63461;51.416;6.758;2023-05-10T01:44:07;14.50;99.90
74901;DHT22;63461;51.416;6.758;2023-05-10T01:46:36;14.50;99.90
74901;DHT22;63461;51.416;6.758;2023-05-10T01:49:11;14.40;99.90
74901;DHT22;63461;51.416;6.758;2023-05-10T01:51:48;14.50;99.90
74901;DHT22;63461;51.416;6.758;2023-05-10T01:54:19;14.40;99.90
74901;DHT22;63461;51.416;6.758;2023-05-10T01:56:48;14.40;99.90
74901;DHT22;63461;51.416;6.758;2023-05-10T01:59:18;14.50;99.90
74901;DHT22;63461;51.416;6.758;2023-05-10T02:01:46;14.50;99.90
74901;DHT22;63461;51.416;6.758;2023-05-10T02:04:16;14.50;99.90
74901;DHT22;63461;51.416;6.758;2023-05-10T02:06:43;14.50;99.90
74901;DHT22;63461;51.416;6.758;2023-05-10T02:09:10;14.50;99.90
74901;DHT22;63461;51.416;6.758;2023-05-10T02:11:41;14.50;99.90
74901;DHT22;63461;51.416;6.758;2023-05-10T02:14:09;14.50;99.90
74901;DHT22;63461;51.416;6.758;2023-05-10T02:16:36;14.40;99.90
74901;DHT22;63461;51.416;6.758;2023-05-10T02:19:03;14.50;99.90
74901;DHT22;63461;51.416;6.758;2023-05-10T02:21:30;14.30;99.90
74901;DHT22;63461;51.416;6.758;2023-05-10T02:23:57;14.30;99.90
74901;DHT22;63461;51.416;6.758;2023-05-10T02:26:26;14.40;99.90
74901;DHT22;63461;51.416;6.758;2023-05-10T02:28:53;14.30;99.90
74901;DHT22;63461;51.416;6.758;2023-05-10T02:31:19;14.40;99.90
74901;DHT22;63461;51.416;6.758;2023-05-10T02:33:46;14.40;99.90
74901;DHT22;63461;51.416;6.758;2023-05-10T02:36:13;14.50;99.90
74901;DHT22;63461;51.416;6.758;2023-05-10T02:38:41;14.40;99.90
74901;DHT22;63461;51.416;6.758;2023-05-10T02:41:08;14.30;99.90
74901;DHT22;63461;51.416;6.758;2023-05-10T02:43:37;14.40;99.90
74901;DHT22;63461;51.416;6.758;2023-05-10T02:46:05;14.20;99.90
74901;DHT22;63461;51.416;6.758;2023-05-10T02:48:31;14.30;99.90
74901;DHT22;63461;51.416;6.758;2023-05-10T02:51:02;14.30;99.90
74901;DHT22;63461;51.416;6.758;2023-05-10T02:53:36;14.40;99.90
74901;DHT22;63461;51.416;6.758;2023-05-10T02:56:13;14.40;99.90
74901;DHT22;63461;51.416;6.758;2023-05-10T02:58:40;14.30;99.90
74901;DHT22;63461;51.416;6.758;2023-05-10T03:01:06;14.30;99.90
74901;DHT22;63461;51.416;6.758;2023-05-10T03:03:33;14.20;99.90
74901;DHT22;63461;51.416;6.758;2023-05-10T03:05:59;14.30;99.90
74901;DHT22;63461;51.416;6.758;2023-05-10T03:08:26;14.40;99.90
74901;DHT22;63461;51.416;6.758;2023-05-10T03:11:13;14.40;99.90
74901;DHT22;63461;51.416;6.758;2023-05-10T03:16:28;14.30;99.90
74901;DHT22;63461;51.416;6.758;2023-05-10T03:19:01;14.40;99.90
74901;DHT22;63461;51.416;6.758;2023-05-10T03:21:29;14.40;99.90
74901;DHT22;63461;51.416;6.758;2023-05-10T03:24:03;14.40;99.90
74901;DHT22;63461;51.416;6.758;2023-05-10T03:26:32;14.30;99.90
74901;DHT22;63461;51.416;6.758;2023-05-10T03:29:08;14.30;99.90
74901;DHT22;63461;51.416;6.758;2023-05-10T03:31:35;14.40;99.90
74901;DHT22;63461;51.416;6.758;2023-05-10T03:34:01;14.40;99.90
74901;DHT22;63461;51.416;6.758;2023-05-10T03:36:27;14.40;99.90
74901;DHT22;63461;51.416;6.758;2023-05-10T03:38:54;14.40;99.90
74901;DHT22;63461;51.416;6.758;2023-05-10T03:41:20;14.40;99.90
74901;DHT22;63461;51.416;6.758;2023-05-10T03:43:47;14.30;99.90
74901;DHT22;63461;51.416;6.758;2023-05-10T03:46:12;14.40;99.90
74901;DHT22;63461;51.416;6.758;2023-05-10T03:48:38;14.40;99.90
74901;DHT22;63461;51.416;6.758;2023-05-10T03:51:05;14.40;99.90
74901;DHT22;63461;51.416;6.758;2023-05-10T03:53:30;14.40;99.90
74901;DHT22;63461;51.416;6.758;2023-05-10T03:55:56;14.40;99.90
74901;DHT22;63461;51.416;6.758;2023-05-10T03:58:23;14.50;99.90
74901;DHT22;63461;51.416;6.758;2023-05-10T04:00:48;14.40;99.90
74901;DHT22;63461;51.416;6.758;2023-05-10T04:03:14;14.40;99.90
74901;DHT22;63461;51.416;6.758;2023-05-10T04:05:40;14.30;99.90
74901;DHT22;63461;51.416;6.758;2023-05-10T04:08:06;14.40;99.90
74901;DHT22;63461;51.416;6.758;2023-05-10T04:10:32;14.40;99.90
74901;DHT22;63461;51.416;6.758;2023-05-10T04:12:58;14.40;99.90
74901;DHT22;63461;51.416;6.758;2023-05-10T04:15:24;14.30;99.90
74901;DHT22;63461;51.416;6.758;2023-05-10T04:17:49;14.30;99.90
74901;DHT22;63461;51.416;6.758;2023-05-10T04:20:15;14.30;99.90
74901;DHT22;63461;51.416;6.758;2023-05-10T04:22:41;14.40;99.90
74901;DHT22;63461;51.416;6.758;2023-05-10T04:25:07;14.40;99.90
74901;DHT22;63461;51.416;6.758;2023-05-10T04:27:33;14.30;99.90
74901;DHT22;63461;51.416;6.758;2023-05-10T04:29:59;14.30;99.90
74901;DHT22;63461;51.416;6.758;2023-05-10T04:32:25;14.30;99.90
74901;DHT22;63461;51.416;6.758;2023-05-10T04:34:51;14.30;99.90
74901;DHT22;63461;51.416;6.758;2023-05-10T04:37:18;14.40;99.90
74901;DHT22;63461;51.416;6.758;2023-05-10T04:39:43;14.40;99.90
74901;DHT22;63461;51.416;6.758;2023-05-10T04:42:09;14.40;99.90
74901;DHT22;63461;51.416;6.758;2023-05-10T04:44:35;14.30;99.90
74901;DHT22;63461;51.416;6.758;2023-05-10T04:47:01;14.40;99.90
74901;DHT22;63461;51.416;6.758;2023-05-10T04:49:29;14.50;99.90
74901;DHT22;63461;51.416;6.758;2023-05-10T04:51:55;14.50;99.90
74901;DHT22;63461;51.416;6.758;2023-05-10T04:54:21;14.40;99.90
74901;DHT22;63461;51.416;6.758;2023-05-10T04:56:47;14.50;99.90
74901;DHT22;63461;51.416;6.758;2023-05-10T04:59:12;14.60;99.90
74901;DHT22;63461;51.416;6.758;2023-05-10T05:01:39;14.60;99.90
74901;DHT22;63461;51.416;6.758;2023-05-10T05:04:05;14.50;99.90
74901;DHT22;63461;51.416;6.758;2023-05-10T05:06:31;14.60;99.90
74901;DHT22;63461;51.416;6.758;2023-05-10T05:08:56;14.60;99.90
74901;DHT22;63461;51.416;6.758;2023-05-10T05:11:22;14.60;99.90
74901;DHT22;63461;51.416;6.758;2023-05-10T05:13:48;14.60;99.90
74901;DHT22;63461;51.416;6.758;2023-05-10T05:16:14;14.50;99.90
74901;DHT22;63461;51.416;6.758;2023-05-10T05:18:39;14.60;99.90
74901;DHT22;63461;51.416;6.758;2023-05-10T05:21:18;14.60;99.90
74901;DHT22;63461;51.416;6.758;2023-05-10T05:23:45;14.60;99.90
74901;DHT22;63461;51.416;6.758;2023-05-10T05:26:11;14.60;99.90
74901;DHT22;63461;51.416;6.758;2023-05-10T05:28:36;14.70;99.90
74901;DHT22;63461;51.416;6.758;2023-05-10T05:31:07;14.70;99.90
74901;DHT22;63461;51.416;6.758;2023-05-10T05:33:33;14.70;99.90
74901;DHT22;63461;51.416;6.758;2023-05-10T05:36:03;14.70;99.90
74901;DHT22;63461;51.416;6.758;2023-05-10T05:38:30;14.70;99.90
74901;DHT22;63461;51.416;6.758;2023-05-10T05:40:56;14.60;99.90
74901;DHT22;63461;51.416;6.758;2023-05-10T05:43:22;14.70;99.90
74901;DHT22;63461;51.416;6.758;2023-05-10T05:45:48;14.70;99.90
74901;DHT22;63461;51.416;6.758;2023-05-10T05:48:13;14.70;99.90
74901;DHT22;63461;51.416;6.758;2023-05-10T05:50:39;14.80;99.90
74901;DHT22;63461;51.416;6.758;2023-05-10T05:53:05;14.80;99.90
74901;DHT22;63461;51.416;6.758;2023-05-10T05:55:31;14.90;99.90
74901;DHT22;63461;51.416;6.758;2023-05-10T05:57:57;14.80;99.90
74901;DHT22;63461;51.416;6.758;2023-05-10T06:00:23;14.80;99.90
74901;DHT22;63461;51.416;6.758;2023-05-10T06:02:49;14.80;99.90
74901;DHT22;63461;51.416;6.758;2023-05-10T06:05:15;14.90;99.90
74901;DHT22;63461;51.416;6.758;2023-05-10T06:07:41;14.90;99.90
74901;DHT22;63461;51.416;6.758;2023-05-10T06:10:10;15.00;99.90
74901;DHT22;63461;51.416;6.758;2023-05-10T06:12:35;14.80;99.90
74901;DHT22;63461;51.416;6.758;2023-05-10T06:15:02;14.90;99.90
74901;DHT22;63461;51.416;6.758;2023-05-10T06:17:28;14.90;99.90
74901;DHT22;63461;51.416;6.758;2023-05-10T06:19:54;14.90;99.90
74901;DHT22;63461;51.416;6.758;2023-05-10T06:22:20;14.80;99.90
74901;DHT22;63461;51.416;6.758;2023-05-10T06:24:48;14.90;99.90
74901;DHT22;63461;51.416;6.758;2023-05-10T06:27:14;14.80;99.90
74901;DHT22;63461;51.416;6.758;2023-05-10T06:29:40;14.70;99.90
74901;DHT22;63461;51.416;6.758;2023-05-10T06:32:06;14.70;99.90
74901;DHT22;63461;51.416;6.758;2023-05-10T06:34:32;14.70;99.90
74901;DHT22;63461;51.416;6.758;2023-05-10T06:36:57;14.80;99.90
74901;DHT22;63461;51.416;6.758;2023-05-10T06:39:23;14.90;99.90
74901;DHT22;63461;51.416;6.758;2023-05-10T06:41:49;15.00;99.90
74901;DHT22;63461;51.416;6.758;2023-05-10T06:44:15;14.80;99.90
74901;DHT22;63461;51.416;6.758;2023-05-10T06:46:41;14.80;99.90
74901;DHT22;63461;51.416;6.758;2023-05-10T06:49:07;14.90;99.90
74901;DHT22;63461;51.416;6.758;2023-05-10T06:51:33;14.80;99.90
74901;DHT22;63461;51.416;6.758;2023-05-10T06:53:59;14.90;99.90
74901;DHT22;63461;51.416;6.758;2023-05-10T06:56:25;14.90;99.90
74901;DHT22;63461;51.416;6.758;2023-05-10T06:58:50;15.00;99.90
74901;DHT22;63461;51.416;6.758;2023-05-10T07:01:16;14.90;99.90
74901;DHT22;63461;51.416;6.758;2023-05-10T07:03:42;15.00;99.90
74901;DHT22;63461;51.416;6.758;2023-05-10T07:06:07;15.10;99.90
74901;DHT22;63461;51.416;6.758;2023-05-10T07:08:34;15.10;99.90
74901;DHT22;63461;51.416;6.758;2023-05-10T07:13:26;15.10;99.90
74901;DHT22;63461;51.416;6.758;2023-05-10T07:15:52;15.00;99.90
74901;DHT22;63461;51.416;6.758;2023-05-10T07:18:18;15.10;99.90
74901;DHT22;63461;51.416;6.758;2023-05-10T07:20:44;14.90;99.90
74901;DHT22;63461;51.416;6.758;2023-05-10T07:23:09;15.00;99.90
74901;DHT22;63461;51.416;6.758;2023-05-10T07:25:35;15.00;99.90
74901;DHT22;63461;51.416;6.758;2023-05-10T07:28:01;15.00;99.90
74901;DHT22;63461;51.416;6.758;2023-05-10T07:30:26;15.20;99.90
74901;DHT22;63461;51.416;6.758;2023-05-10T07:32:52;15.10;99.90
74901;DHT22;63461;51.416;6.758;2023-05-10T07:35:18;15.40;99.90
74901;DHT22;63461;51.416;6.758;2023-05-10T07:37:44;15.60;99.90
74901;DHT22;63461;51.416;6.758;2023-05-10T07:40:10;15.80;99.90
74901;DHT22;63461;51.416;6.758;2023-05-10T07:42:36;15.60;99.90
74901;DHT22;63461;51.416;6.758;2023-05-10T07:45:02;15.60;99.90
74901;DHT22;63461;51.416;6.758;2023-05-10T07:47:28;15.70;99.90
74901;DHT22;63461;51.416;6.758;2023-05-10T07:49:54;15.70;99.90
74901;DHT22;63461;51.416;6.758;2023-05-10T07:52:20;15.60;99.90
74901;DHT22;63461;51.416;6.758;2023-05-10T07:54:45;15.70;99.90
74901;DHT22;63461;51.416;6.758;2023-05-10T07:57:11;15.70;99.90
74901;DHT22;63461;51.416;6.758;2023-05-10T07:59:40;15.60;99.90
74901;DHT22;63461;51.416;6.758;2023-05-10T08:02:06;15.50;99.90
74901;DHT22;63461;51.416;6.758;2023-05-10T08:04:31;15.50;99.90
74901;DHT22;63461;51.416;6.758;2023-05-10T08:06:57;15.60;99.90
74901;DHT22;63461;51.416;6.758;2023-05-10T08:09:23;15.90;99.90
74901;DHT22;63461;51.416;6.758;2023-05-10T08:11:49;16.10;99.90
74901;DHT22;63461;51.416;6.758;2023-05-10T08:14:16;16.10;99.90
74901;DHT22;63461;51.416;6.758;2023-05-10T08:16:42;16.20;99.90
74901;DHT22;63461;51.416;6.758;2023-05-10T08:19:08;16.00;99.90
74901;DHT22;63461;51.416;6.758;2023-05-10T08:21:33;16.10;99.90
74901;DHT22;63461;51.416;6.758;2023-05-10T08:23:59;16.10;99.90
74901;DHT22;63461;51.416;6.758;2023-05-10T08:26:25;16.10;99.90
74901;DHT22;63461;51.416;6.758;2023-05-10T08:28:51;16.10;99.90
74901;DHT22;63461;51.416;6.758;2023-05-10T08:31:17;16.00;99.90
74901;DHT22;63461;51.416;6.758;2023-05-10T08:33:43;16.20;99.90
74901;DHT22;63461;51.416;6.758;2023-05-10T08:36:09;16.30;99.90
74901;DHT22;63461;51.416;6.758;2023-05-10T08:38:35;16.30;99.90
74901;DHT22;63461;51.416;6.758;2023-05-10T08:41:02;16.70;99.90
74901;DHT22;63461;51.416;6.758;2023-05-10T08:43:28;16.70;99.90
74901;DHT22;63461;51.416;6.758;2023-05-10T08:45:55;16.70;99.90
74901;DHT22;63461;51.416;6.758;2023-05-10T08:48:24;16.60;99.90
74901;DHT22;63461;51.416;6.758;2023-05-10T08:50:53;16.70;99.90
74901;DHT22;63461;51.416;6.758;2023-05-10T08:53:20;16.70;99.90
74901;DHT22;63461;51.416;6.758;2023-05-10T08:55:47;16.70;99.90
74901;DHT22;63461;51.416;6.758;2023-05-10T08:58:13;16.60;99.90
74901;DHT22;63461;51.416;6.758;2023-05-10T09:00:40;16.40;99.90
74901;DHT22;63461;51.416;6.758;2023-05-10T09:03:05;16.50;99.90
74901;DHT22;63461;51.416;6.758;2023-05-10T09:05:32;16.60;99.90
74901;DHT22;63461;51.416;6.758;2023-05-10T09:07:58;16.60;99.90
74901;DHT22;63461;51.416;6.758;2023-05-10T09:10:26;16.70;99.90
74901;DHT22;63461;51.416;6.758;2023-05-10T09:12:53;16.80;99.90
74901;DHT22;63461;51.416;6.758;2023-05-10T09:15:21;16.90;99.90
74901;DHT22;63461;51.416;6.758;2023-05-10T09:17:49;16.60;99.90
74901;DHT22;63461;51.416;6.758;2023-05-10T09:20:15;16.60;99.90
74901;DHT22;63461;51.416;6.758;2023-05-10T09:22:43;16.60;99.90
74901;DHT22;63461;51.416;6.758;2023-05-10T09:25:11;16.60;99.90
74901;DHT22;63461;51.416;6.758;2023-05-10T09:27:38;16.70;99.90
74901;DHT22;63461;51.416;6.758;2023-05-10T09:30:05;16.70;99.90
74901;DHT22;63461;51.416;6.758;2023-05-10T09:32:46;16.70;99.90
74901;DHT22;63461;51.416;6.758;2023-05-10T09:35:18;16.70;99.90
74901;DHT22;63461;51.416;6.758;2023-05-10T09:37:49;16.70;99.90
74901;DHT22;63461;51.416;6.758;2023-05-10T09:40:17;16.50;99.90
74901;DHT22;63461;51.416;6.758;2023-05-10T09:42:55;16.40;99.90
74901;DHT22;63461;51.416;6.758;2023-05-10T09:45:25;16.50;99.90
74901;DHT22;63461;51.416;6.758;2023-05-10T09:47:51;16.60;99.90
74901;DHT22;63461;51.416;6.758;2023-05-10T09:50:17;16.50;99.90
74901;DHT22;63461;51.416;6.758;2023-05-10T09:52:54;16.40;99.90
74901;DHT22;63461;51.416;6.758;2023-05-10T09:55:37;16.30;99.90
74901;DHT22;63461;51.416;6.758;2023-05-10T09:58:04;16.40;99.90
74901;DHT22;63461;51.416;6.758;2023-05-10T10:00:37;16.40;99.90
74901;DHT22;63461;51.416;6.758;2023-05-10T10:03:03;16.40;99.90
74901;DHT22;63461;51.416;6.758;2023-05-10T10:05:30;16.40;99.90
74901;DHT22;63461;51.416;6.758;2023-05-10T10:07:57;16.20;99.90
74901;DHT22;63461;51.416;6.758;2023-05-10T10:10:27;16.30;99.90
74901;DHT22;63461;51.416;6.758;2023-05-10T10:12:54;16.20;99.90
74901;DHT22;63461;51.416;6.758;2023-05-10T10:15:21;16.00;99.90
74901;DHT22;63461;51.416;6.758;2023-05-10T10:17:48;16.30;99.90
74901;DHT22;63461;51.416;6.758;2023-05-10T10:20:14;16.30;99.90
74901;DHT22;63461;51.416;6.758;2023-05-10T10:22:40;16.20;99.90
74901;DHT22;63461;51.416;6.758;2023-05-10T10:25:07;16.20;99.90
74901;DHT22;63461;51.416;6.758;2023-05-10T10:28:04;16.40;99.90
74901;DHT22;63461;51.416;6.758;2023-05-10T10:30:41;16.50;99.90
74901;DHT22;63461;51.416;6.758;2023-05-10T10:35:48;16.50;99.90
74901;DHT22;63461;51.416;6.758;2023-05-10T10:38:21;16.60;99.90
74901;DHT22;63461;51.416;6.758;2023-05-10T10:40:48;16.50;99.90
74901;DHT22;63461;51.416;6.758;2023-05-10T10:43:27;16.40;99.90
74901;DHT22;63461;51.416;6.758;2023-05-10T10:46:10;16.40;99.90
74901;DHT22;63461;51.416;6.758;2023-05-10T10:48:38;16.20;99.90
74901;DHT22;63461;51.416;6.758;2023-05-10T10:51:04;16.20;99.90
74901;DHT22;63461;51.416;6.758;2023-05-10T10:53:30;16.20;99.90
74901;DHT22;63461;51.416;6.758;2023-05-10T10:56:06;16.40;99.90
74901;DHT22;63461;51.416;6.758;2023-05-10T10:58:37;16.30;99.90
74901;DHT22;63461;51.416;6.758;2023-05-10T11:01:17;16.20;99.90
74901;DHT22;63461;51.416;6.758;2023-05-10T11:06:31;16.20;99.90
74901;DHT22;63461;51.416;6.758;2023-05-10T11:08:58;16.40;99.90
74901;DHT22;63461;51.416;6.758;2023-05-10T11:11:23;16.40;99.90
74901;DHT22;63461;51.416;6.758;2023-05-10T11:13:49;16.60;99.90
74901;DHT22;63461;51.416;6.758;2023-05-10T11:16:22;16.70;99.90
74901;DHT22;63461;51.416;6.758;2023-05-10T11:18:52;16.70;99.90
74901;DHT22;63461;51.416;6.758;2023-05-10T11:21:19;16.50;99.90
74901;DHT22;63461;51.416;6.758;2023-05-10T11:26:11;16.90;99.90
74901;DHT22;63461;51.416;6.758;2023-05-10T11:28:47;16.80;99.90
74901;DHT22;63461;51.416;6.758;2023-05-10T11:31:18;16.80;99.90
74901;DHT22;63461;51.416;6.758;2023-05-10T11:33:52;17.00;99.90
74901;DHT22;63461;51.416;6.758;2023-05-10T11:36:20;17.00;99.90
74901;DHT22;63461;51.416;6.758;2023-05-10T11:38:46;17.20;99.90
74901;DHT22;63461;51.416;6.758;2023-05-10T11:41:13;17.40;99.90
74901;DHT22;63461;51.416;6.758;2023-05-10T11:43:39;17.30;99.90
74901;DHT22;63461;51.416;6.758;2023-05-10T11:46:10;17.20;99.90
74901;DHT22;63461;51.416;6.758;2023-05-10T11:48:38;16.90;99.90
74901;DHT22;63461;51.416;6.758;2023-05-10T11:51:04;16.80;99.90
74901;DHT22;63461;51.416;6.758;2023-05-10T11:53:31;16.80;99.90
74901;DHT22;63461;51.416;6.758;2023-05-10T11:56:09;16.80;99.90
74901;DHT22;63461;51.416;6.758;2023-05-10T11:58:36;16.90;99.90
74901;DHT22;63461;51.416;6.758;2023-05-10T12:01:03;17.00;99.90
74901;DHT22;63461;51.416;6.758;2023-05-10T12:03:30;17.10;99.90
74901;DHT22;63461;51.416;6.758;2023-05-10T12:05:57;17.20;99.90
74901;DHT22;63461;51.416;6.758;2023-05-10T12:08:28;17.20;99.90
74901;DHT22;63461;51.416;6.758;2023-05-10T12:11:09;17.10;99.90
74901;DHT22;63461;51.416;6.758;2023-05-10T12:13:40;17.20;99.90
74901;DHT22;63461;51.416;6.758;2023-05-10T12:16:35;17.20;99.90
74901;DHT22;63461;51.416;6.758;2023-05-10T12:19:01;17.30;99.90
74901;DHT22;63461;51.416;6.758;2023-05-10T12:21:29;17.50;99.90
74901;DHT22;63461;51.416;6.758;2023-05-10T12:24:01;17.40;99.90
74901;DHT22;63461;51.416;6.758;2023-05-10T12:26:28;17.60;99.90
74901;DHT22;63461;51.416;6.758;2023-05-10T12:28:54;17.50;99.90
74901;DHT22;63461;51.416;6.758;2023-05-10T12:31:20;17.60;99.90
74901;DHT22;63461;51.416;6.758;2023-05-10T12:33:46;17.80;99.90
74901;DHT22;63461;51.416;6.758;2023-05-10T12:36:15;17.80;99.90
74901;DHT22;63461;51.416;6.758;2023-05-10T12:38:45;18.00;99.90
74901;DHT22;63461;51.416;6.758;2023-05-10T12:41:15;18.00;99.90
74901;DHT22;63461;51.416;6.758;2023-05-10T12:43:41;18.10;99.90
74901;DHT22;63461;51.416;6.758;2023-05-10T12:46:12;17.90;99.90
74901;DHT22;63461;51.416;6.758;2023-05-10T12:48:40;18.10;99.90
74901;DHT22;63461;51.416;6.758;2023-05-10T12:51:07;18.20;99.90
74901;DHT22;63461;51.416;6.758;2023-05-10T12:53:35;18.20;99.90
74901;DHT22;63461;51.416;6.758;2023-05-10T12:56:01;18.00;99.90
74901;DHT22;63461;51.416;6.758;2023-05-10T12:58:27;18.10;99.90
74901;DHT22;63461;51.416;6.758;2023-05-10T13:00:53;18.30;99.90
74901;DHT22;63461;51.416;6.758;2023-05-10T13:03:19;18.40;99.90
74901;DHT22;63461;51.416;6.758;2023-05-10T13:05:45;18.40;99.90
74901;DHT22;63461;51.416;6.758;2023-05-10T13:08:10;18.40;99.90
74901;DHT22;63461;51.416;6.758;2023-05-10T13:10:36;18.40;99.90
74901;DHT22;63461;51.416;6.758;2023-05-10T13:13:02;18.50;99.90
74901;DHT22;63461;51.416;6.758;2023-05-10T13:15:28;18.20;99.90
74901;DHT22;63461;51.416;6.758;2023-05-10T13:17:54;18.30;99.90
74901;DHT22;63461;51.416;6.758;2023-05-10T13:20:20;18.50;99.90
74901;DHT22;63461;51.416;6.758;2023-05-10T13:22:46;18.90;99.90
74901;DHT22;63461;51.416;6.758;2023-05-10T13:25:12;19.00;99.90
74901;DHT22;63461;51.416;6.758;2023-05-10T13:27:41;18.90;99.90
74901;DHT22;63461;51.416;6.758;2023-05-10T13:30:08;18.70;99.90
74901;DHT22;63461;51.416;6.758;2023-05-10T13:32:34;18.70;99.90
74901;DHT22;63461;51.416;6.758;2023-05-10T13:35:01;18.60;99.90
74901;DHT22;63461;51.416;6.758;2023-05-10T13:37:29;18.60;99.90
74901;DHT22;63461;51.416;6.758;2023-05-10T13:39:55;18.70;99.90
74901;DHT22;63461;51.416;6.758;2023-05-10T13:42:22;18.80;99.90
74901;DHT22;63461;51.416;6.758;2023-05-10T13:44:49;19.00;99.90
74901;DHT22;63461;51.416;6.758;2023-05-10T13:47:15;19.10;99.90
74901;DHT22;63461;51.416;6.758;2023-05-10T13:49:41;19.20;99.90
74901;DHT22;63461;51.416;6.758;2023-05-10T13:52:07;19.20;99.90
74901;DHT22;63461;51.416;6.758;2023-05-10T13:54:36;19.20;99.90
74901;DHT22;63461;51.416;6.758;2023-05-10T13:57:02;19.30;99.90
74901;DHT22;63461;51.416;6.758;2023-05-10T13:59:28;19.40;99.90
74901;DHT22;63461;51.416;6.758;2023-05-10T14:01:54;19.30;99.90
74901;DHT22;63461;51.416;6.758;2023-05-10T14:04:20;19.20;99.90
74901;DHT22;63461;51.416;6.758;2023-05-10T14:06:46;19.10;99.90
74901;DHT22;63461;51.416;6.758;2023-05-10T14:09:12;19.20;99.90
74901;DHT22;63461;51.416;6.758;2023-05-10T14:11:38;19.20;99.90
74901;DHT22;63461;51.416;6.758;2023-05-10T14:14:07;19.20;99.90
74901;DHT22;63461;51.416;6.758;2023-05-10T14:16:33;19.20;99.90
74901;DHT22;63461;51.416;6.758;2023-05-10T14:18:58;19.10;99.90
74901;DHT22;63461;51.416;6.758;2023-05-10T14:21:24;19.10;99.90
74901;DHT22;63461;51.416;6.758;2023-05-10T14:23:50;19.10;99.90
74901;DHT22;63461;51.416;6.758;2023-05-10T14:26:16;19.00;99.90
74901;DHT22;63461;51.416;6.758;2023-05-10T14:28:42;18.90;99.90
74901;DHT22;63461;51.416;6.758;2023-05-10T14:31:07;18.90;99.90
74901;DHT22;63461;51.416;6.758;2023-05-10T14:33:33;18.80;99.90
74901;DHT22;63461;51.416;6.758;2023-05-10T14:35:59;18.70;99.90
74901;DHT22;63461;51.416;6.758;2023-05-10T14:56:11;19.00;99.90
74901;DHT22;63461;51.416;6.758;2023-05-10T14:58:37;19.10;99.90
74901;DHT22;63461;51.416;6.758;2023-05-10T15:01:03;19.20;99.90
74901;DHT22;63461;51.416;6.758;2023-05-10T15:03:29;19.40;99.90
74901;DHT22;63461;51.416;6.758;2023-05-10T15:05:55;19.30;99.90
74901;DHT22;63461;51.416;6.758;2023-05-10T15:08:23;19.30;99.90
74901;DHT22;63461;51.416;6.758;2023-05-10T15:10:50;19.20;99.90
74901;DHT22;63461;51.416;6.758;2023-05-10T15:13:16;19.10;99.90
74901;DHT22;63461;51.416;6.758;2023-05-10T15:15:42;19.10;99.90
74901;DHT22;63461;51.416;6.758;2023-05-10T15:18:10;19.20;99.90
74901;DHT22;63461;51.416;6.758;2023-05-10T15:20:36;19.00;99.90
74901;DHT22;63461;51.416;6.758;2023-05-10T15:23:02;18.80;99.90
74901;DHT22;63461;51.416;6.758;2023-05-10T15:25:28;18.70;99.90
74901;DHT22;63461;51.416;6.758;2023-05-10T15:27:54;18.60;99.90
74901;DHT22;63461;51.416;6.758;2023-05-10T15:30:20;18.30;99.90
74901;DHT22;63461;51.416;6.758;2023-05-10T15:32:46;18.00;99.90
74901;DHT22;63461;51.416;6.758;2023-05-10T15:35:12;17.90;99.90
74901;DHT22;63461;51.416;6.758;2023-05-10T15:37:39;18.10;99.90
74901;DHT22;63461;51.416;6.758;2023-05-10T15:40:05;18.00;99.90
74901;DHT22;63461;51.416;6.758;2023-05-10T15:42:32;17.80;99.90
74901;DHT22;63461;51.416;6.758;2023-05-10T15:45:05;17.50;99.90
74901;DHT22;63461;51.416;6.758;2023-05-10T15:47:31;17.40;99.90
74901;DHT22;63461;51.416;6.758;2023-05-10T15:49:57;17.40;99.90
74901;DHT22;63461;51.416;6.758;2023-05-10T15:52:23;17.30;99.90
74901;DHT22;63461;51.416;6.758;2023-05-10T15:54:49;17.10;99.90
74901;DHT22;63461;51.416;6.758;2023-05-10T15:57:15;16.90;99.90
74901;DHT22;63461;51.416;6.758;2023-05-10T15:59:43;17.00;99.90
74901;DHT22;63461;51.416;6.758;2023-05-10T16:02:10;17.00;99.90
74901;DHT22;63461;51.416;6.758;2023-05-10T16:04:39;17.00;99.90
74901;DHT22;63461;51.416;6.758;2023-05-10T16:07:05;16.70;99.90
74901;DHT22;63461;51.416;6.758;2023-05-10T16:09:33;16.70;99.90
74901;DHT22;63461;51.416;6.758;2023-05-10T16:11:59;16.70;99.90
74901;DHT22;63461;51.416;6.758;2023-05-10T16:14:27;16.80;99.90
74901;DHT22;63461;51.416;6.758;2023-05-10T16:16:53;16.90;99.90
74901;DHT22;63461;51.416;6.758;2023-05-10T16:19:19;16.80;99.90